createdAt,value
2022-12-31T00:12:48.304Z,9.27
2022-12-31T00:32:48.320Z,9.47
2022-12-31T00:52:48.372Z,9.75
2022-12-31T01:12:48.349Z,10.49
2022-12-31T01:52:48.300Z,11.29
2022-12-31T02:12:48.287Z,11.25
2022-12-31T02:32:48.297Z,11.26
2022-12-31T02:52:48.206Z,11.19
2022-12-31T03:12:48.220Z,11.31
2022-12-31T03:32:48.229Z,11.02
2022-12-31T03:52:48.183Z,10.85
2022-12-31T04:12:48.204Z,10.30
2022-12-31T04:32:48.138Z,11.09
2022-12-31T04:52:48.157Z,11.60
2022-12-31T05:12:48.182Z,11.84
2022-12-31T05:32:48.086Z,12.08
2022-12-31T05:52:48.106Z,11.73
2022-12-31T06:12:48.156Z,11.12
2022-12-31T06:32:48.028Z,10.69
2022-12-31T06:52:48.038Z,11.18
2022-12-31T07:12:48.049Z,10.67
2022-12-31T07:32:48.085Z,10.00
2022-12-31T07:52:48.129Z,10.15
2022-12-31T08:12:48.032Z,9.95
2022-12-31T08:32:48.015Z,9.60
2022-12-31T08:52:47.943Z,9.51
2022-12-31T09:12:47.957Z,10.12
2022-12-31T09:32:47.963Z,10.14
2022-12-31T09:52:47.940Z,10.40
2022-12-31T10:12:47.900Z,11.25
2022-12-31T10:32:47.918Z,12.18
2022-12-31T10:52:47.841Z,11.93
2022-12-31T11:12:47.854Z,11.26
2022-12-31T11:32:47.864Z,11.15
2022-12-31T11:52:47.788Z,11.70
2022-12-31T12:12:47.819Z,11.97
2022-12-31T12:32:47.880Z,12.49
2022-12-31T12:52:47.754Z,12.89
2022-12-31T13:12:47.768Z,13.16
2022-12-31T13:32:47.735Z,13.51
2022-12-31T13:52:47.824Z,13.68
2022-12-31T14:12:47.738Z,12.32
2022-12-31T14:32:47.651Z,11.19
2022-12-31T14:52:47.681Z,10.26
2022-12-31T15:12:47.831Z,9.40
2022-12-31T15:32:47.624Z,8.36
2022-12-31T15:52:47.656Z,7.63
2022-12-31T16:12:47.759Z,7.15
2022-12-31T16:32:47.602Z,7.35
2022-12-31T16:52:47.595Z,7.10
2022-12-31T17:12:47.601Z,7.12
2022-12-31T17:32:47.642Z,7.15
2022-12-31T17:52:47.549Z,7.16
2022-12-31T18:12:47.557Z,7.10
2022-12-31T18:32:47.599Z,6.96
2022-12-31T18:52:47.591Z,6.80
2022-12-31T19:12:47.501Z,6.67
2022-12-31T19:32:47.565Z,6.29
2022-12-31T19:52:47.534Z,6.07
2022-12-31T20:12:47.747Z,5.98
2022-12-31T20:32:47.576Z,5.86
2022-12-31T20:52:47.487Z,5.66
2022-12-31T21:12:47.524Z,5.44
2022-12-31T21:32:47.533Z,5.32
2022-12-31T21:52:47.544Z,5.22
2022-12-31T22:12:47.480Z,5.30
2022-12-31T22:32:47.487Z,5.45
2022-12-31T22:52:47.609Z,5.34
2022-12-31T23:12:47.523Z,5.10
2022-12-31T23:32:47.592Z,5.00
2022-12-31T23:52:47.491Z,4.99
